Time;durP1;ratioP1;P1;durP2;ratioP2;P2;SDS_P1;SDS_P2;PMS_P1;PMS_P2;Temp;Humidity;BMP_temperature;BMP_pressure;BME280_temperature;BME280_humidity;BME280_pressure;Samples;Min_cycle;Max_cycle;Signal;HPM_P1;HPM_P2
2021/01/07 00:02:21;;;;;;;28.42;16.27;;;2.30;99.90;;;;;;4932602;29;20310;-75
2021/01/07 00:04:47;;;;;;;37.45;18.65;;;2.30;99.90;;;;;;4933073;29;20305;-75
2021/01/07 00:07:15;;;;;;;31.20;16.17;;;2.30;99.90;;;;;;4934873;29;20274;-75
2021/01/07 00:09:41;;;;;;;33.38;17.40;;;2.40;99.90;;;;;;4934904;29;20205;-75
2021/01/07 00:12:08;;;;;;;30.17;18.85;;;2.40;99.90;;;;;;4934843;29;20229;-75
2021/01/07 00:14:35;;;;;;;29.02;17.52;;;2.30;99.90;;;;;;4916090;29;20246;-76
2021/01/07 00:17:01;;;;;;;31.65;17.60;;;2.30;99.90;;;;;;4930002;29;20278;-75
2021/01/07 00:19:28;;;;;;;28.70;16.17;;;2.30;99.90;;;;;;4931405;29;20266;-75
2021/01/07 00:21:55;;;;;;;27.17;14.85;;;2.30;99.90;;;;;;4932850;29;20226;-74
2021/01/07 00:24:22;;;;;;;31.58;17.17;;;2.30;99.90;;;;;;4932432;29;20209;-75
2021/01/07 00:26:49;;;;;;;29.83;16.73;;;2.30;99.90;;;;;;4932684;29;20222;-75
2021/01/07 00:29:15;;;;;;;27.98;16.05;;;2.30;99.90;;;;;;4934420;29;20668;-75
2021/01/07 00:31:42;;;;;;;25.75;15.60;;;2.30;99.90;;;;;;4934295;29;20225;-74
2021/01/07 00:34:08;;;;;;;30.20;15.68;;;2.40;99.90;;;;;;4934608;29;20559;-75
2021/01/07 00:36:35;;;;;;;27.77;15.35;;;2.40;99.90;;;;;;4932759;29;20285;-75
2021/01/07 00:39:01;;;;;;;41.28;18.20;;;2.30;99.90;;;;;;4929069;29;20203;-75
2021/01/07 00:41:29;;;;;;;29.15;15.85;;;2.40;99.90;;;;;;4931033;29;20205;-75
2021/01/07 00:43:55;;;;;;;35.17;17.60;;;2.40;99.90;;;;;;4931938;29;20195;-75
2021/01/07 00:46:22;;;;;;;30.67;15.85;;;2.40;99.90;;;;;;4931973;29;20314;-75
2021/01/07 00:48:48;;;;;;;28.85;15.43;;;2.30;99.90;;;;;;4932567;29;20205;-75
2021/01/07 00:51:15;;;;;;;26.33;16.20;;;2.40;99.90;;;;;;4934070;29;20199;-74
2021/01/07 00:53:42;;;;;;;27.33;16.15;;;2.40;99.90;;;;;;4917483;29;20201;-75
2021/01/07 00:56:08;;;;;;;28.65;16.30;;;2.40;99.90;;;;;;4934144;29;20199;-75
2021/01/07 00:58:36;;;;;;;26.70;15.75;;;2.40;99.90;;;;;;4932615;29;20199;-75
2021/01/07 01:01:03;;;;;;;26.23;15.60;;;2.40;99.90;;;;;;4928456;29;20198;-74
2021/01/07 01:03:29;;;;;;;29.83;15.68;;;2.40;99.90;;;;;;4930860;29;20294;-75
2021/01/07 01:05:56;;;;;;;26.17;16.20;;;2.40;99.90;;;;;;4931772;29;20255;-75
2021/01/07 01:08:22;;;;;;;32.42;16.38;;;2.40;99.90;;;;;;4932130;29;20233;-74
2021/01/07 01:10:49;;;;;;;32.10;17.60;;;2.40;99.90;;;;;;4932568;29;20626;-74
2021/01/07 01:13:16;;;;;;;30.85;17.15;;;2.40;99.90;;;;;;4934694;29;20270;-74
2021/01/07 01:15:43;;;;;;;35.00;17.83;;;2.40;99.90;;;;;;4935049;29;20258;-75
2021/01/07 01:18:11;;;;;;;32.97;18.45;;;2.50;99.90;;;;;;4935186;29;20310;-75
2021/01/07 01:20:38;;;;;;;31.98;17.83;;;2.50;99.90;;;;;;4933154;29;20230;-75
2021/01/07 01:23:06;;;;;;;32.92;16.23;;;2.40;99.90;;;;;;4929082;29;20247;-75
2021/01/07 01:25:32;;;;;;;30.17;16.77;;;2.50;99.90;;;;;;4913756;29;20597;-75
2021/01/07 01:27:59;;;;;;;27.92;16.85;;;2.50;99.90;;;;;;4931946;29;20692;-75
2021/01/07 01:30:25;;;;;;;25.38;16.05;;;2.40;99.90;;;;;;4932327;29;20230;-74
2021/01/07 01:32:53;;;;;;;30.83;16.65;;;2.50;99.90;;;;;;4932402;29;20217;-75
2021/01/07 01:35:19;;;;;;;29.65;18.10;;;2.40;99.90;;;;;;4933934;29;20283;-75
2021/01/07 01:37:46;;;;;;;29.88;17.38;;;2.50;99.90;;;;;;4933979;29;20254;-75
2021/01/07 01:40:14;;;;;;;31.50;16.88;;;2.40;99.90;;;;;;4934164;29;20246;-75
2021/01/07 01:42:40;;;;;;;30.70;15.85;;;2.40;99.90;;;;;;4932423;29;20310;-75
2021/01/07 01:45:08;;;;;;;26.35;15.77;;;2.40;99.90;;;;;;4928445;29;20198;-74
2021/01/07 01:47:34;;;;;;;24.02;14.48;;;2.40;99.90;;;;;;4930399;29;20579;-76
2021/01/07 01:50:02;;;;;;;25.88;15.50;;;2.40;99.90;;;;;;4931492;29;20559;-75
2021/01/07 01:52:31;;;;;;;26.48;15.45;;;2.50;99.90;;;;;;4914755;29;20274;-75
2021/01/07 01:54:57;;;;;;;28.83;16.20;;;2.50;99.90;;;;;;4931814;29;20660;-76
2021/01/07 01:57:25;;;;;;;26.75;15.32;;;2.50;99.90;;;;;;4934075;29;20284;-75
2021/01/07 01:59:51;;;;;;;21.58;13.50;;;2.50;99.90;;;;;;4933684;29;20227;-75
2021/01/07 02:02:19;;;;;;;27.55;16.25;;;2.50;99.90;;;;;;4933938;29;20304;-76
2021/01/07 02:04:46;;;;;;;27.13;13.73;;;2.50;99.90;;;;;;4911870;29;20742;-75
2021/01/07 02:07:17;;;;;;;27.98;14.98;;;2.50;99.90;;;;;;4907160;29;20227;-75
2021/01/07 02:09:45;;;;;;;26.30;15.15;;;2.50;99.90;;;;;;4910849;29;20210;-75
2021/01/07 02:12:12;;;;;;;23.77;14.93;;;2.50;99.90;;;;;;4912038;29;20279;-75
2021/01/07 02:14:40;;;;;;;25.85;14.65;;;2.50;99.90;;;;;;4914706;29;20214;-75
2021/01/07 02:17:07;;;;;;;30.25;16.40;;;2.50;99.90;;;;;;4915793;29;20296;-75
2021/01/07 02:19:33;;;;;;;25.33;16.35;;;2.50;99.90;;;;;;4913394;29;20191;-75
2021/01/07 02:22:01;;;;;;;26.92;14.32;;;2.50;99.90;;;;;;4912998;29;20323;-75
2021/01/07 02:24:29;;;;;;;28.90;14.63;;;2.60;99.90;;;;;;4915616;29;20658;-75
2021/01/07 02:26:59;;;;;;;26.20;15.02;;;2.50;99.90;;;;;;4914375;29;20232;-75
2021/01/07 02:29:25;;;;;;;30.55;16.13;;;2.50;99.90;;;;;;4914623;29;20290;-75
2021/01/07 02:31:52;;;;;;;27.98;15.75;;;2.50;99.90;;;;;;4916791;29;20230;-75
2021/01/07 02:34:19;;;;;;;27.88;15.13;;;2.50;99.90;;;;;;4917711;29;20200;-75
2021/01/07 02:36:45;;;;;;;28.38;17.13;;;2.50;99.90;;;;;;4917607;29;20230;-75
2021/01/07 02:39:13;;;;;;;28.10;16.27;;;2.50;99.90;;;;;;4917736;29;20210;-75
2021/01/07 02:41:39;;;;;;;25.27;15.38;;;2.50;99.90;;;;;;4911824;29;20587;-75
2021/01/07 02:44:06;;;;;;;31.48;17.60;;;2.60;99.90;;;;;;4912700;29;20204;-75
2021/01/07 02:46:32;;;;;;;29.35;14.90;;;2.50;99.90;;;;;;4915458;29;20233;-75
2021/01/07 02:48:59;;;;;;;33.38;15.70;;;2.50;99.90;;;;;;4915087;29;20254;-75
2021/01/07 02:51:26;;;;;;;29.73;16.23;;;2.50;99.90;;;;;;4915194;29;20196;-75
2021/01/07 02:53:53;;;;;;;29.10;15.70;;;2.50;99.90;;;;;;4916396;29;20545;-76
2021/01/07 02:56:20;;;;;;;31.80;16.73;;;2.50;99.90;;;;;;4917265;29;20195;-75
2021/01/07 02:58:47;;;;;;;29.58;13.55;;;2.50;99.90;;;;;;4917150;29;20203;-75
2021/01/07 03:01:14;;;;;;;30.42;17.27;;;2.60;99.90;;;;;;4917285;29;20707;-75
2021/01/07 03:03:40;;;;;;;28.58;15.48;;;2.50;99.90;;;;;;4912747;29;20207;-75
2021/01/07 03:06:07;;;;;;;29.48;15.50;;;2.50;99.90;;;;;;4930679;29;20273;-74
2021/01/07 03:08:33;;;;;;;32.40;17.48;;;2.50;99.90;;;;;;4933700;29;20231;-74
2021/01/07 03:11:00;;;;;;;34.10;17.38;;;2.50;99.90;;;;;;4934095;29;20199;-75
2021/01/07 03:13:27;;;;;;;28.52;16.05;;;2.60;99.90;;;;;;4933820;29;20653;-75
2021/01/07 03:15:54;;;;;;;29.52;16.10;;;2.50;99.90;;;;;;4934977;29;20207;-76
2021/01/07 03:18:20;;;;;;;28.67;15.95;;;2.50;99.90;;;;;;4935798;29;20213;-75
2021/01/07 03:20:47;;;;;;;37.05;20.23;;;2.50;99.90;;;;;;4936025;29;20289;-76
2021/01/07 03:23:14;;;;;;;31.65;16.92;;;2.50;99.90;;;;;;4935401;29;20578;-76
2021/01/07 03:25:40;;;;;;;32.20;18.15;;;2.50;99.90;;;;;;4931259;29;20206;-75
2021/01/07 03:28:07;;;;;;;32.72;18.17;;;2.50;99.90;;;;;;4930878;29;20218;-75
2021/01/07 03:30:34;;;;;;;31.58;17.02;;;2.50;99.90;;;;;;4932740;29;20679;-75
2021/01/07 03:33:01;;;;;;;36.72;19.13;;;2.50;99.90;;;;;;4933085;29;20589;-76
2021/01/07 03:35:27;;;;;;;31.95;18.70;;;2.50;99.90;;;;;;4933582;29;20677;-75
2021/01/07 03:37:54;;;;;;;35.95;20.02;;;2.50;99.90;;;;;;4934462;29;20294;-75
2021/01/07 03:40:20;;;;;;;28.73;16.10;;;2.50;99.90;;;;;;4935428;29;20337;-76
2021/01/07 03:42:47;;;;;;;29.55;15.65;;;2.50;99.90;;;;;;4935572;29;20226;-75
2021/01/07 03:45:14;;;;;;;41.15;19.42;;;2.50;99.90;;;;;;4935458;29;20203;-76
2021/01/07 03:47:42;;;;;;;37.30;17.77;;;2.50;99.90;;;;;;4931198;29;20233;-75
2021/01/07 03:50:10;;;;;;;32.30;17.45;;;2.50;99.90;;;;;;4931138;29;20202;-75
2021/01/07 03:52:36;;;;;;;30.00;17.20;;;2.50;99.90;;;;;;4932634;29;20212;-76
2021/01/07 03:55:03;;;;;;;31.60;18.38;;;2.50;99.90;;;;;;4932977;29;20209;-75
2021/01/07 03:57:30;;;;;;;32.67;15.52;;;2.50;99.90;;;;;;4932911;29;20209;-75
2021/01/07 03:59:56;;;;;;;42.10;18.50;;;2.50;99.90;;;;;;4933888;29;20210;-75
2021/01/07 04:02:23;;;;;;;31.48;16.27;;;2.50;99.90;;;;;;4935268;29;20258;-75
2021/01/07 04:04:51;;;;;;;36.00;18.45;;;2.50;99.90;;;;;;4935268;29;20722;-75
2021/01/07 04:07:17;;;;;;;38.75;17.55;;;2.40;99.90;;;;;;4934999;29;20233;-75
2021/01/07 04:09:44;;;;;;;34.55;17.75;;;2.40;99.90;;;;;;4930898;29;20195;-75
2021/01/07 04:12:10;;;;;;;31.55;15.68;;;2.50;99.90;;;;;;4930347;29;20651;-75
2021/01/07 04:14:37;;;;;;;32.28;16.40;;;2.40;99.90;;;;;;4931932;29;20253;-75
2021/01/07 04:17:04;;;;;;;29.83;15.95;;;2.40;99.90;;;;;;4932408;29;20653;-76
2021/01/07 04:19:30;;;;;;;31.30;15.77;;;2.40;99.90;;;;;;4932755;29;20649;-75
2021/01/07 04:22:00;;;;;;;29.35;16.20;;;2.50;99.90;;;;;;4933643;29;20229;-75
2021/01/07 04:24:27;;;;;;;33.83;15.50;;;2.40;99.90;;;;;;4934863;29;20203;-75
2021/01/07 04:26:54;;;;;;;35.67;15.65;;;2.40;99.90;;;;;;4934328;29;20258;-75
2021/01/07 04:29:20;;;;;;;30.38;15.35;;;2.40;99.90;;;;;;4934659;29;20302;-75
2021/01/07 04:31:47;;;;;;;30.85;16.30;;;2.40;99.90;;;;;;4930500;29;20207;-75
2021/01/07 04:34:13;;;;;;;41.15;19.60;;;2.40;99.90;;;;;;4929904;29;20599;-75
2021/01/07 04:36:40;;;;;;;41.30;19.40;;;2.40;99.90;;;;;;4931225;29;20199;-75
2021/01/07 04:39:07;;;;;;;41.22;20.00;;;2.40;99.90;;;;;;4932356;29;20290;-75
2021/01/07 04:41:35;;;;;;;42.65;18.52;;;2.40;99.90;;;;;;4932355;29;20245;-75
2021/01/07 04:44:02;;;;;;;33.88;18.13;;;2.40;99.90;;;;;;4933443;29;20649;-75
2021/01/07 04:46:28;;;;;;;39.65;18.85;;;2.50;99.90;;;;;;4934738;29;20253;-75
2021/01/07 04:48:55;;;;;;;30.77;16.40;;;2.40;99.90;;;;;;4934592;29;20282;-75
2021/01/07 04:51:22;;;;;;;41.47;19.15;;;2.40;99.90;;;;;;4934360;29;20569;-75
2021/01/07 04:53:49;;;;;;;33.72;18.35;;;2.40;99.90;;;;;;4930836;29;20286;-75
2021/01/07 04:56:17;;;;;;;38.55;19.23;;;2.40;99.90;;;;;;4929561;29;20195;-75
2021/01/07 04:58:44;;;;;;;41.92;20.98;;;2.40;99.90;;;;;;4914946;29;20351;-75
2021/01/07 05:01:10;;;;;;;40.80;20.52;;;2.50;99.90;;;;;;4932127;29;20246;-75
2021/01/07 05:03:37;;;;;;;36.78;17.73;;;2.40;99.90;;;;;;4932205;29;20221;-75
2021/01/07 05:06:04;;;;;;;36.47;19.60;;;2.40;99.90;;;;;;4932981;29;20269;-75
2021/01/07 05:08:30;;;;;;;43.72;21.75;;;2.40;99.90;;;;;;4934088;29;20249;-75
2021/01/07 05:10:58;;;;;;;38.88;19.55;;;2.40;99.90;;;;;;4934113;29;20234;-76
2021/01/07 05:13:25;;;;;;;36.25;17.75;;;2.40;99.90;;;;;;4934279;29;20245;-76
2021/01/07 05:15:52;;;;;;;36.42;19.75;;;2.40;99.90;;;;;;4930476;29;20209;-76
2021/01/07 05:18:18;;;;;;;41.70;21.45;;;2.40;99.90;;;;;;4928925;29;20728;-75
2021/01/07 05:20:45;;;;;;;37.60;19.25;;;2.40;99.90;;;;;;4931590;29;20203;-75
2021/01/07 05:23:12;;;;;;;42.85;21.88;;;2.50;99.90;;;;;;4931557;29;20233;-75
2021/01/07 05:25:39;;;;;;;38.40;20.10;;;2.50;99.90;;;;;;4932274;29;20199;-75
2021/01/07 05:28:06;;;;;;;41.47;20.63;;;2.50;99.90;;;;;;4932675;29;20590;-75
2021/01/07 05:30:35;;;;;;;38.70;21.42;;;2.40;99.90;;;;;;4917105;29;20289;-75
2021/01/07 05:33:04;;;;;;;36.58;19.75;;;2.40;99.90;;;;;;4934014;29;20281;-75
2021/01/07 05:35:31;;;;;;;41.15;19.65;;;2.50;99.90;;;;;;4933824;29;20273;-75
2021/01/07 05:37:59;;;;;;;44.75;19.50;;;2.50;99.90;;;;;;4913400;29;20200;-75
2021/01/07 05:40:26;;;;;;;37.95;20.05;;;2.50;99.90;;;;;;4912406;29;20202;-75
2021/01/07 05:42:56;;;;;;;40.25;20.95;;;2.50;99.90;;;;;;4931350;29;20292;-75
2021/01/07 05:45:22;;;;;;;40.85;19.02;;;2.50;99.90;;;;;;4931636;29;20195;-75
2021/01/07 05:47:51;;;;;;;39.30;20.55;;;2.50;99.90;;;;;;4934113;29;20317;-75
2021/01/07 05:50:20;;;;;;;38.42;21.52;;;2.50;99.90;;;;;;4936349;29;20736;-74
2021/01/07 05:52:48;;;;;;;41.15;21.55;;;2.50;99.90;;;;;;4920605;29;20278;-75
2021/01/07 05:55:17;;;;;;;37.38;19.67;;;2.50;99.90;;;;;;4920799;29;20290;-75
2021/01/07 05:57:44;;;;;;;43.33;22.60;;;2.50;99.90;;;;;;4920863;29;20222;-75
2021/01/07 06:00:13;;;;;;;40.80;22.35;;;2.50;99.90;;;;;;4916391;29;20203;-75
2021/01/07 06:02:41;;;;;;;39.47;20.88;;;2.50;99.90;;;;;;4915848;29;20214;-75
2021/01/07 06:05:11;;;;;;;44.72;21.90;;;2.50;99.90;;;;;;4934254;29;20579;-76
2021/01/07 06:07:38;;;;;;;41.42;20.75;;;2.50;99.90;;;;;;4918366;29;20620;-76
2021/01/07 06:10:07;;;;;;;42.20;20.77;;;2.50;99.90;;;;;;4918448;29;20195;-75
2021/01/07 06:12:34;;;;;;;42.53;20.45;;;2.50;99.90;;;;;;4936446;29;20698;-75
2021/01/07 06:15:05;;;;;;;37.33;19.55;;;2.50;99.90;;;;;;4936886;29;20210;-75
2021/01/07 06:17:32;;;;;;;41.03;20.92;;;2.60;99.90;;;;;;4920055;29;20210;-75
2021/01/07 06:19:58;;;;;;;39.55;20.75;;;2.70;99.90;;;;;;4936973;29;20282;-75
2021/01/07 06:22:26;;;;;;;40.42;21.35;;;2.60;99.90;;;;;;4932576;29;20726;-75
2021/01/07 06:24:54;;;;;;;47.20;23.73;;;2.60;99.90;;;;;;4932416;29;20574;-75
2021/01/07 06:27:26;;;;;;;42.42;21.88;;;2.60;99.90;;;;;;4934561;29;20219;-75
2021/01/07 06:29:56;;;;;;;50.25;23.45;;;2.60;99.90;;;;;;4934307;29;20290;-74
2021/01/07 06:32:24;;;;;;;47.42;23.35;;;2.60;99.90;;;;;;4934901;29;20627;-75
2021/01/07 06:34:52;;;;;;;48.88;23.58;;;2.60;99.90;;;;;;4919057;29;20199;-76
2021/01/07 06:37:35;;;;;;;49.03;22.60;;;2.60;99.90;;;;;;4936844;29;20221;-75
2021/01/07 06:40:05;;;;;;;49.38;23.63;;;2.60;99.90;;;;;;4922077;29;20221;-75
2021/01/07 06:42:35;;;;;;;43.88;24.08;;;2.60;99.90;;;;;;4936506;29;20281;-76
2021/01/07 06:45:03;;;;;;;54.20;25.35;;;2.60;99.90;;;;;;4914497;29;20207;-75
2021/01/07 06:47:32;;;;;;;56.20;24.63;;;2.60;99.90;;;;;;4932341;29;20223;-75
2021/01/07 06:49:59;;;;;;;44.88;25.08;;;2.60;99.90;;;;;;4934301;29;20203;-75
2021/01/07 06:52:27;;;;;;;54.95;26.77;;;2.70;99.90;;;;;;4917266;29;20318;-75
2021/01/07 06:54:55;;;;;;;48.25;25.25;;;2.70;99.90;;;;;;4934649;29;20253;-75
2021/01/07 06:57:23;;;;;;;55.67;27.42;;;2.70;99.90;;;;;;4935754;29;20209;-76
2021/01/07 06:59:58;;;;;;;51.58;25.45;;;2.60;99.90;;;;;;4935439;29;20718;-75
2021/01/07 07:02:25;;;;;;;44.97;24.02;;;2.70;99.90;;;;;;4933125;29;20225;-75
2021/01/07 07:05:00;;;;;;;51.00;25.70;;;2.70;99.90;;;;;;4913906;29;20227;-75
2021/01/07 07:07:56;;;;;;;47.63;24.05;;;2.70;99.90;;;;;;4933490;29;20640;-75
2021/01/07 07:10:52;;;;;;;50.72;25.55;;;2.70;99.90;;;;;;4920920;29;20652;-75
2021/01/07 07:13:21;;;;;;;59.03;27.17;;;2.70;99.90;;;;;;4919089;29;20312;-75
2021/01/07 07:15:49;;;;;;;55.63;27.17;;;2.70;99.90;;;;;;4918487;29;20213;-75
2021/01/07 07:18:25;;;;;;;67.38;30.40;;;2.70;99.90;;;;;;4919147;29;20206;-74
2021/01/07 07:20:51;;;;;;;59.17;26.23;;;2.70;99.90;;;;;;4918931;29;20559;-83
2021/01/07 07:23:20;;;;;;;53.65;27.27;;;2.70;99.90;;;;;;4935543;29;20368;-82
2021/01/07 07:25:50;;;;;;;50.33;24.27;;;2.70;99.90;;;;;;4913117;29;20315;-86
2021/01/07 07:28:19;;;;;;;60.70;28.88;;;2.70;99.90;;;;;;4914747;29;20842;-86
2021/01/07 07:30:47;;;;;;;60.00;28.17;;;2.70;99.90;;;;;;4916592;29;20227;-75
2021/01/07 07:33:31;;;;;;;60.38;29.25;;;2.70;99.90;;;;;;4916704;29;20241;-75
2021/01/07 07:35:58;;;;;;;55.47;25.13;;;2.80;99.90;;;;;;4933509;29;20199;-75
2021/01/07 07:38:29;;;;;;;58.45;27.35;;;2.70;99.90;;;;;;4935405;29;20234;-77
2021/01/07 07:41:01;;;;;;;55.40;27.38;;;2.70;99.90;;;;;;4935519;29;20203;-76
2021/01/07 07:43:30;;;;;;;56.47;26.90;;;2.70;99.90;;;;;;4935652;29;20219;-76
2021/01/07 07:45:58;;;;;;;50.55;23.23;;;2.70;99.90;;;;;;4917379;29;20290;-76
2021/01/07 07:48:25;;;;;;;63.05;28.65;;;2.70;99.90;;;;;;4929172;29;20227;-76
2021/01/07 07:51:04;;;;;;;55.97;28.08;;;2.70;99.90;;;;;;4931698;29;20199;-75
2021/01/07 07:53:31;;;;;;;48.38;24.42;;;2.70;99.90;;;;;;4916002;29;20221;-76
2021/01/07 07:55:57;;;;;;;48.45;26.20;;;2.70;99.90;;;;;;4933291;29;20195;-76
2021/01/07 07:58:24;;;;;;;53.28;24.55;;;2.70;99.90;;;;;;4934034;29;20290;-75
2021/01/07 08:00:52;;;;;;;54.72;26.35;;;2.70;99.90;;;;;;4935104;29;20199;-75
2021/01/07 08:03:27;;;;;;;53.97;26.77;;;2.70;99.90;;;;;;4917812;29;20281;-75
2021/01/07 08:05:55;;;;;;;48.38;27.10;;;2.70;99.90;;;;;;4917832;29;20775;-74
2021/01/07 08:08:23;;;;;;;52.78;28.33;;;2.70;99.90;;;;;;4933071;29;20223;-75
2021/01/07 08:10:49;;;;;;;53.85;29.25;;;2.70;99.90;;;;;;4929394;29;20667;-76
2021/01/07 08:13:19;;;;;;;50.80;25.60;;;2.70;99.90;;;;;;4931039;29;20215;-75
2021/01/07 08:15:48;;;;;;;48.53;23.27;;;2.80;99.90;;;;;;4932191;29;20204;-75
2021/01/07 08:18:17;;;;;;;48.80;24.45;;;2.70;99.90;;;;;;4915632;29;20194;-76
2021/01/07 08:20:44;;;;;;;44.88;23.70;;;2.80;99.90;;;;;;4916818;29;20211;-76
2021/01/07 08:23:12;;;;;;;46.90;24.05;;;2.80;99.90;;;;;;4934867;29;20314;-75
2021/01/07 08:25:38;;;;;;;42.65;21.50;;;2.70;99.90;;;;;;4934710;29;20233;-75
2021/01/07 08:28:16;;;;;;;40.10;21.83;;;2.80;99.90;;;;;;4934055;29;20223;-75
2021/01/07 08:30:49;;;;;;;44.33;21.52;;;2.80;99.90;;;;;;4933589;29;20254;-75
2021/01/07 08:33:18;;;;;;;46.45;22.40;;;2.90;99.90;;;;;;4929120;29;20211;-75
2021/01/07 08:35:46;;;;;;;47.00;22.33;;;2.80;99.90;;;;;;4915011;29;20250;-75
2021/01/07 08:38:23;;;;;;;39.78;20.70;;;2.90;99.90;;;;;;4931926;29;20199;-75
2021/01/07 08:40:50;;;;;;;41.97;22.05;;;2.80;99.90;;;;;;4931849;29;20219;-75
2021/01/07 08:43:17;;;;;;;37.15;20.20;;;2.80;99.90;;;;;;4932784;29;20559;-74
2021/01/07 08:45:43;;;;;;;44.47;21.17;;;2.90;99.90;;;;;;4934341;29;20210;-74
2021/01/07 08:48:10;;;;;;;43.78;20.30;;;2.90;99.90;;;;;;4934229;29;20261;-76
2021/01/07 08:50:38;;;;;;;41.72;20.45;;;2.90;99.90;;;;;;4934491;29;20596;-76
2021/01/07 08:53:13;;;;;;;46.03;21.45;;;2.90;99.90;;;;;;4933128;29;20223;-77
2021/01/07 08:55:48;;;;;;;36.00;19.15;;;2.80;99.90;;;;;;4927583;29;20253;-76
2021/01/07 08:58:23;;;;;;;39.22;19.38;;;2.80;99.90;;;;;;4930594;29;20191;-74
2021/01/07 09:00:51;;;;;;;41.78;20.50;;;2.80;99.90;;;;;;4932021;29;20206;-75
2021/01/07 09:03:17;;;;;;;38.00;18.85;;;2.80;99.90;;;;;;4913107;29;20302;-75
2021/01/07 09:05:45;;;;;;;47.67;21.10;;;2.80;99.90;;;;;;4932197;29;20226;-76
2021/01/07 09:08:17;;;;;;;41.15;21.15;;;2.70;99.90;;;;;;4933802;29;20286;-76
2021/01/07 09:10:44;;;;;;;34.58;20.10;;;2.70;99.90;;;;;;4917826;29;20297;-76
2021/01/07 09:13:16;;;;;;;41.05;21.05;;;2.70;99.90;;;;;;4933994;29;20266;-76
2021/01/07 09:15:42;;;;;;;46.10;20.58;;;2.70;99.90;;;;;;4931843;29;20297;-75
2021/01/07 09:18:09;;;;;;;53.67;24.05;;;2.70;99.90;;;;;;4928506;29;20317;-75
2021/01/07 09:20:36;;;;;;;41.85;22.00;;;2.80;99.90;;;;;;4914043;29;20191;-75
2021/01/07 09:23:06;;;;;;;36.25;19.65;;;2.80;99.90;;;;;;4933983;29;20214;-75
2021/01/07 09:25:33;;;;;;;44.90;20.67;;;2.80;99.90;;;;;;4918469;29;20225;-75
2021/01/07 09:28:00;;;;;;;39.03;21.27;;;2.80;99.90;;;;;;4918797;29;20692;-76
2021/01/07 09:30:28;;;;;;;34.33;17.08;;;2.80;99.90;;;;;;4937568;29;20286;-75
2021/01/07 09:32:55;;;;;;;39.33;19.60;;;2.80;99.90;;;;;;4937620;29;20704;-76
2021/01/07 09:35:22;;;;;;;36.38;18.25;;;2.80;99.90;;;;;;4920468;29;20194;-75
2021/01/07 09:37:49;;;;;;;37.92;18.50;;;2.80;99.90;;;;;;4935712;29;20302;-76
2021/01/07 09:40:17;;;;;;;31.42;18.15;;;2.80;99.90;;;;;;4915366;29;20190;-76
2021/01/07 09:42:43;;;;;;;32.22;17.35;;;2.80;99.90;;;;;;4916942;29;20215;-75
2021/01/07 09:45:11;;;;;;;33.97;18.73;;;2.80;99.90;;;;;;4935285;29;20294;-75
2021/01/07 09:47:38;;;;;;;36.83;20.40;;;2.90;99.90;;;;;;4935407;29;20325;-76
2021/01/07 09:50:06;;;;;;;38.00;16.92;;;2.90;99.90;;;;;;4918636;29;20253;-76
2021/01/07 09:52:34;;;;;;;36.28;18.67;;;2.90;99.90;;;;;;4937159;29;20225;-75
2021/01/07 09:55:01;;;;;;;31.90;16.55;;;3.00;99.90;;;;;;4920309;29;20226;-75
2021/01/07 09:57:28;;;;;;;36.55;19.30;;;2.90;99.90;;;;;;4937412;29;20202;-75
2021/01/07 09:59:55;;;;;;;32.55;17.02;;;2.90;99.90;;;;;;4935364;29;20202;-75
2021/01/07 10:02:21;;;;;;;33.33;17.25;;;2.90;99.90;;;;;;4931677;29;20695;-76
2021/01/07 10:04:48;;;;;;;30.77;17.27;;;2.90;99.90;;;;;;4933616;29;20314;-75
2021/01/07 10:07:15;;;;;;;35.40;18.42;;;2.90;99.90;;;;;;4934734;29;20290;-77
2021/01/07 10:09:41;;;;;;;30.98;18.40;;;2.90;99.90;;;;;;4930974;29;20226;-76
2021/01/07 10:12:09;;;;;;;38.35;18.10;;;2.90;99.90;;;;;;4934903;29;20317;-76
2021/01/07 10:14:37;;;;;;;38.35;22.55;;;3.00;99.90;;;;;;4920020;29;20605;-76
2021/01/07 10:17:06;;;;;;;33.88;17.60;;;3.00;99.90;;;;;;4932929;29;20646;-76
2021/01/07 10:19:35;;;;;;;27.65;16.67;;;3.00;99.90;;;;;;4914225;29;21870;-75
2021/01/07 10:22:04;;;;;;;30.10;17.25;;;3.00;99.90;;;;;;4932989;29;20313;-75
2021/01/07 10:24:32;;;;;;;26.70;15.73;;;3.10;99.90;;;;;;4932675;29;20608;-75
2021/01/07 10:27:00;;;;;;;31.50;17.10;;;3.00;99.90;;;;;;4915635;29;20196;-75
2021/01/07 10:29:30;;;;;;;28.77;17.45;;;3.10;99.90;;;;;;4933805;29;20700;-75
2021/01/07 10:32:02;;;;;;;27.58;15.90;;;3.00;99.90;;;;;;4935784;29;20290;-74
2021/01/07 10:34:30;;;;;;;30.05;16.65;;;3.00;99.90;;;;;;4935553;29;20195;-75
2021/01/07 10:36:58;;;;;;;24.27;13.55;;;3.00;99.90;;;;;;4936630;29;20205;-76
2021/01/07 10:39:25;;;;;;;27.90;13.93;;;2.90;99.90;;;;;;4936013;29;20206;-73
2021/01/07 10:41:57;;;;;;;22.10;13.45;;;3.00;99.90;;;;;;4930436;29;20222;-74
2021/01/07 10:44:27;;;;;;;25.15;13.15;;;3.00;99.90;;;;;;4915620;29;20748;-76
2021/01/07 10:46:57;;;;;;;20.05;12.45;;;3.00;99.90;;;;;;4933646;29;20203;-76
2021/01/07 10:49:27;;;;;;;20.75;12.15;;;3.00;99.90;;;;;;4917380;29;20231;-75
2021/01/07 10:52:19;;;;;;;19.63;11.55;;;2.90;99.90;;;;;;4933858;29;20334;-75
2021/01/07 10:54:58;;;;;;;19.98;11.85;;;3.00;99.90;;;;;;4912278;29;20209;-76
2021/01/07 10:57:44;;;;;;;23.63;14.02;;;3.00;99.90;;;;;;4916231;29;20278;-75
2021/01/07 11:00:24;;;;;;;27.85;15.57;;;3.00;99.90;;;;;;4934321;29;20286;-76
2021/01/07 11:03:07;;;;;;;27.73;16.52;;;3.00;99.90;;;;;;4933734;29;20215;-76
2021/01/07 11:05:37;;;;;;;29.45;17.02;;;3.00;99.90;;;;;;4933819;29;20273;-75
2021/01/07 11:08:16;;;;;;;19.95;12.23;;;3.00;99.90;;;;;;4933858;29;20764;-75
2021/01/07 11:10:50;;;;;;;26.85;15.18;;;3.00;99.90;;;;;;4930435;29;20199;-75
2021/01/07 11:13:20;;;;;;;21.90;13.70;;;3.00;99.90;;;;;;4915335;29;20213;-75
2021/01/07 11:15:53;;;;;;;21.67;13.05;;;3.10;99.90;;;;;;4933665;29;20288;-76
2021/01/07 11:18:26;;;;;;;16.50;10.30;;;3.10;99.90;;;;;;4933844;29;20219;-76
2021/01/07 11:20:59;;;;;;;18.35;11.98;;;3.10;99.90;;;;;;4933373;29;20206;-74
2021/01/07 11:23:27;;;;;;;20.15;13.32;;;3.10;99.90;;;;;;4914754;29;20282;-76
2021/01/07 11:25:54;;;;;;;14.35;10.85;;;3.20;99.90;;;;;;4929936;29;20192;-75
2021/01/07 11:28:21;;;;;;;19.15;12.63;;;3.20;99.90;;;;;;4915797;29;20313;-75
2021/01/07 11:30:48;;;;;;;15.30;11.35;;;3.20;99.90;;;;;;4916352;29;20695;-76
2021/01/07 11:33:16;;;;;;;16.00;10.75;;;3.30;99.90;;;;;;4933906;29;20301;-76
2021/01/07 11:35:44;;;;;;;20.48;13.20;;;3.20;99.90;;;;;;4917245;29;20203;-75
2021/01/07 11:38:23;;;;;;;24.27;15.30;;;3.20;99.90;;;;;;4934528;29;20335;-75
2021/01/07 11:40:58;;;;;;;19.17;12.80;;;3.30;99.90;;;;;;4918613;29;20254;-74
2021/01/07 11:43:48;;;;;;;18.67;11.90;;;3.20;99.90;;;;;;4934876;29;20225;-75
2021/01/07 11:46:18;;;;;;;20.02;12.07;;;3.30;99.90;;;;;;4915888;29;20249;-75
2021/01/07 11:48:52;;;;;;;21.17;13.27;;;3.20;99.90;;;;;;4931002;29;20276;-74
2021/01/07 11:51:19;;;;;;;18.52;12.57;;;3.20;99.90;;;;;;4917221;29;20286;-75
2021/01/07 11:53:47;;;;;;;20.02;11.52;;;3.30;99.90;;;;;;4932081;29;20230;-75
2021/01/07 11:56:14;;;;;;;13.70;9.68;;;3.30;99.90;;;;;;4915906;29;20671;-75
2021/01/07 11:58:43;;;;;;;18.63;11.85;;;3.30;99.90;;;;;;4934162;29;20210;-74
2021/01/07 12:01:09;;;;;;;16.02;11.40;;;3.20;99.90;;;;;;4932333;29;20195;-75
2021/01/07 12:03:37;;;;;;;16.30;11.60;;;3.30;99.90;;;;;;4931517;29;20746;-75
2021/01/07 12:06:05;;;;;;;15.35;11.15;;;3.30;99.90;;;;;;4931471;29;20231;-76
2021/01/07 12:08:51;;;;;;;17.38;11.65;;;3.30;99.90;;;;;;4908877;29;20327;-75
2021/01/07 12:11:22;;;;;;;13.75;10.13;;;3.30;99.90;;;;;;4911135;29;20206;-75
2021/01/07 12:13:57;;;;;;;13.30;9.85;;;3.30;99.90;;;;;;4912476;29;20202;-76
2021/01/07 12:16:29;;;;;;;13.82;9.55;;;3.30;99.90;;;;;;4912566;29;20293;-76
2021/01/07 12:18:57;;;;;;;15.10;10.80;;;3.30;99.90;;;;;;4929635;29;20675;-75
2021/01/07 12:21:23;;;;;;;13.73;10.85;;;3.30;99.90;;;;;;4930474;29;20203;-75
2021/01/07 12:23:51;;;;;;;24.58;10.98;;;3.30;99.90;;;;;;4931148;29;20229;-76
2021/01/07 12:26:19;;;;;;;12.25;8.70;;;3.30;99.90;;;;;;4931110;29;20289;-74
2021/01/07 12:28:52;;;;;;;12.43;8.85;;;3.30;99.90;;;;;;4931082;29;20233;-77
2021/01/07 12:31:20;;;;;;;10.80;8.00;;;3.30;99.90;;;;;;4908442;29;20199;-76
2021/01/07 12:33:58;;;;;;;12.05;8.02;;;3.30;99.90;;;;;;4927323;29;20207;-78
2021/01/07 12:36:40;;;;;;;10.45;7.20;;;3.30;99.90;;;;;;4928823;29;20673;-75
2021/01/07 12:39:13;;;;;;;11.32;8.10;;;3.20;99.90;;;;;;4929289;29;20601;-75
2021/01/07 12:41:46;;;;;;;10.15;7.82;;;3.30;99.90;;;;;;4912910;29;20656;-75
2021/01/07 12:44:14;;;;;;;11.07;8.20;;;3.20;99.90;;;;;;4914608;29;20203;-76
2021/01/07 12:46:46;;;;;;;12.02;9.43;;;3.30;99.90;;;;;;4930801;29;20211;-75